Time;durP1;ratioP1;P1;durP2;ratioP2;P2;SDS_P1;SDS_P2;PMS_P1;PMS_P2;Temp;Humidity;BMP_temperature;BMP_pressure;BME280_temperature;BME280_humidity;BME280_pressure;Samples;Min_cycle;Max_cycle;Signal;HPM_P1;HPM_P2
2022/12/27 00:01:16;;;;;;;13.73;2.75;;;4.00;99.90;;;;;;5049322;28;20055;-71
2022/12/27 00:03:42;;;;;;;8.55;2.53;;;4.00;99.90;;;;;;5055857;28;20087;-70
2022/12/27 00:06:12;;;;;;;6.45;2.17;;;4.00;99.90;;;;;;5055374;28;20084;-70
2022/12/27 00:08:37;;;;;;;9.43;2.28;;;4.00;99.90;;;;;;5048452;28;20044;-69
2022/12/27 00:11:08;;;;;;;8.93;2.17;;;4.00;99.90;;;;;;5049792;28;20028;-69
2022/12/27 00:13:34;;;;;;;13.95;2.72;;;4.00;99.90;;;;;;5055705;28;20063;-70
2022/12/27 00:16:05;;;;;;;15.85;3.17;;;4.00;99.90;;;;;;5050165;28;20033;-68
2022/12/27 00:18:30;;;;;;;13.48;2.38;;;3.90;99.90;;;;;;5049604;28;20052;-68
2022/12/27 00:20:58;;;;;;;13.30;2.25;;;4.00;99.90;;;;;;5043692;28;20054;-70
2022/12/27 00:23:24;;;;;;;10.75;2.45;;;3.90;99.90;;;;;;5036672;28;20038;-68
2022/12/27 00:25:50;;;;;;;21.45;2.85;;;3.90;99.90;;;;;;5060742;28;20839;-72
2022/12/27 00:28:21;;;;;;;17.20;2.67;;;4.00;99.90;;;;;;5059333;28;20083;-71
2022/12/27 00:30:53;;;;;;;10.98;2.70;;;3.90;99.90;;;;;;5058689;28;20117;-71
2022/12/27 00:33:19;;;;;;;13.63;2.42;;;3.90;99.90;;;;;;5053985;28;20096;-70
2022/12/27 00:35:44;;;;;;;13.50;3.00;;;3.90;99.90;;;;;;5057187;28;20051;-70
2022/12/27 00:38:10;;;;;;;18.20;3.05;;;3.80;99.90;;;;;;5041103;28;20031;-71
2022/12/27 00:40:38;;;;;;;10.50;2.67;;;3.80;99.90;;;;;;5055992;28;20175;-68
2022/12/27 00:43:04;;;;;;;13.40;2.75;;;3.80;99.90;;;;;;5045190;28;20128;-70
2022/12/27 00:45:29;;;;;;;9.90;2.70;;;3.80;99.90;;;;;;5049240;28;20040;-67
2022/12/27 00:47:55;;;;;;;10.45;2.78;;;3.80;99.90;;;;;;5058333;28;20033;-72
2022/12/27 00:50:20;;;;;;;10.38;2.70;;;3.80;99.90;;;;;;5059180;28;20492;-71
2022/12/27 00:52:46;;;;;;;14.45;2.47;;;3.80;99.90;;;;;;5047990;28;20029;-71
2022/12/27 00:55:11;;;;;;;9.77;2.20;;;3.70;99.90;;;;;;5049192;28;20040;-73
2022/12/27 00:57:37;;;;;;;19.55;2.75;;;3.80;99.90;;;;;;5050363;28;20032;-72
2022/12/27 01:00:04;;;;;;;11.55;2.78;;;3.80;99.90;;;;;;5045524;28;20033;-69
2022/12/27 01:02:30;;;;;;;10.80;2.40;;;3.80;99.90;;;;;;5054322;28;20036;-70
2022/12/27 01:04:56;;;;;;;6.90;2.22;;;3.80;99.90;;;;;;5057594;28;20037;-72
2022/12/27 01:07:23;;;;;;;7.13;2.58;;;3.80;99.90;;;;;;5040618;28;20071;-69
2022/12/27 01:09:48;;;;;;;10.13;2.30;;;3.80;99.90;;;;;;5057706;28;20040;-70
2022/12/27 01:12:14;;;;;;;20.17;2.72;;;3.80;99.90;;;;;;5054572;28;20077;-71
2022/12/27 01:14:40;;;;;;;14.55;2.60;;;3.80;99.90;;;;;;5037301;28;20407;-71
2022/12/27 01:17:06;;;;;;;13.13;2.20;;;3.80;99.90;;;;;;5054049;28;20029;-72
2022/12/27 01:19:33;;;;;;;8.40;2.55;;;3.80;99.90;;;;;;5048847;28;20025;-71
2022/12/27 01:21:59;;;;;;;16.85;2.95;;;3.80;99.90;;;;;;5050997;28;20041;-69
2022/12/27 01:24:24;;;;;;;13.80;2.83;;;3.80;99.90;;;;;;5043187;28;20032;-71
2022/12/27 01:26:50;;;;;;;14.82;2.70;;;3.80;99.90;;;;;;5044679;28;20024;-71
2022/12/27 01:29:15;;;;;;;7.43;2.53;;;3.80;99.90;;;;;;5053001;28;20789;-71
2022/12/27 01:31:41;;;;;;;8.43;2.10;;;3.80;99.90;;;;;;5042847;28;20037;-70
2022/12/27 01:34:06;;;;;;;10.75;2.75;;;3.80;99.90;;;;;;5060681;28;20297;-70
2022/12/27 01:36:32;;;;;;;12.50;3.63;;;3.80;99.90;;;;;;5039457;28;20048;-70
2022/12/27 01:38:59;;;;;;;12.60;2.40;;;3.90;99.90;;;;;;5057228;28;20104;-71
2022/12/27 01:44:38;;;;;;;12.52;3.45;;;3.70;99.90;;;;;;5056157;28;20101;-70
2022/12/27 01:47:28;;;;;;;9.15;2.20;;;3.80;99.90;;;;;;5061020;28;20036;-69
2022/12/27 01:50:04;;;;;;;11.68;3.03;;;3.70;99.90;;;;;;5043852;28;20100;-70
2022/12/27 01:52:35;;;;;;;15.10;4.75;;;3.70;99.90;;;;;;5050828;28;20034;-71
2022/12/27 01:55:09;;;;;;;11.52;3.35;;;3.70;99.90;;;;;;5056697;28;20044;-71
2022/12/27 01:57:35;;;;;;;24.10;3.85;;;3.70;99.90;;;;;;5055877;28;20017;-69
2022/12/27 02:00:00;;;;;;;10.05;3.65;;;3.60;99.90;;;;;;5060705;28;20085;-71
2022/12/27 02:02:26;;;;;;;12.05;3.08;;;3.70;99.90;;;;;;5060406;28;20032;-70
2022/12/27 02:04:53;;;;;;;15.20;3.67;;;3.60;99.90;;;;;;5048124;28;20056;-68
2022/12/27 02:07:25;;;;;;;10.57;2.97;;;3.60;99.90;;;;;;5052923;28;20135;-69
2022/12/27 02:09:57;;;;;;;20.27;2.90;;;3.60;99.90;;;;;;5048499;28;20091;-70
2022/12/27 02:12:25;;;;;;;12.02;3.30;;;3.60;99.90;;;;;;5043273;28;20025;-70
2022/12/27 02:14:51;;;;;;;18.25;3.17;;;3.60;99.90;;;;;;5059101;28;20105;-70
2022/12/27 02:17:25;;;;;;;9.48;2.97;;;3.60;99.90;;;;;;5047024;28;20034;-68
2022/12/27 02:20:12;;;;;;;13.10;3.38;;;3.60;99.90;;;;;;5049168;28;20451;-69
2022/12/27 02:26:22;;;;;;;9.65;3.13;;;3.60;99.90;;;;;;5062597;28;20126;-72
2022/12/27 02:28:54;;;;;;;12.98;3.60;;;3.70;99.90;;;;;;5056388;28;20049;-71
2022/12/27 02:31:30;;;;;;;13.30;3.53;;;3.70;99.90;;;;;;5062536;28;20040;-72
2022/12/27 02:33:57;;;;;;;11.55;3.10;;;3.70;99.90;;;;;;5062097;28;20029;-73
2022/12/27 02:36:27;;;;;;;10.25;2.95;;;3.70;99.90;;;;;;5062135;28;20056;-70
2022/12/27 02:38:56;;;;;;;12.60;3.50;;;3.70;99.90;;;;;;5044573;28;20112;-70
2022/12/27 02:53:08;;;;;;;14.63;3.35;;;3.60;99.90;;;;;;5062304;28;20043;-70
2022/12/27 02:59:08;;;;;;;9.90;3.33;;;3.70;99.90;;;;;;5061701;28;20044;-71
2022/12/27 03:05:07;;;;;;;13.77;4.03;;;3.60;99.90;;;;;;5061955;28;20044;-69
2022/12/27 03:07:59;;;;;;;22.98;4.05;;;3.60;99.90;;;;;;5061928;28;20191;-70
2022/12/27 03:16:36;;;;;;;13.77;4.47;;;3.60;99.90;;;;;;5061805;28;20048;-70
2022/12/27 03:27:42;;;;;;;16.70;5.22;;;3.60;99.90;;;;;;5061288;28;20060;-71
2022/12/27 03:33:12;;;;;;;25.10;6.97;;;3.70;99.90;;;;;;5061566;28;20091;-70
2022/12/27 03:39:11;;;;;;;16.40;5.20;;;3.70;99.90;;;;;;5061424;28;20056;-73
2022/12/27 03:44:40;;;;;;;14.73;5.85;;;3.80;99.90;;;;;;5060160;28;20040;-70
2022/12/27 03:47:28;;;;;;;20.88;5.63;;;3.80;99.90;;;;;;5042948;28;20025;-69
2022/12/27 03:50:16;;;;;;;16.98;4.20;;;3.90;99.90;;;;;;5060814;28;20037;-72
2022/12/27 03:52:52;;;;;;;18.05;5.30;;;3.90;99.90;;;;;;5060475;28;20096;-72
2022/12/27 03:55:18;;;;;;;16.75;4.60;;;3.90;99.90;;;;;;5043029;28;20032;-70
2022/12/27 03:57:43;;;;;;;12.38;4.60;;;3.90;99.90;;;;;;5060294;28;20040;-71
2022/12/27 04:00:10;;;;;;;18.80;5.85;;;3.90;99.90;;;;;;5061090;28;20378;-71
2022/12/27 04:02:36;;;;;;;13.60;5.03;;;4.00;99.90;;;;;;5060902;28;20024;-68
2022/12/27 04:05:01;;;;;;;16.98;5.22;;;4.00;99.90;;;;;;5042454;28;20025;-71
2022/12/27 04:07:27;;;;;;;18.23;5.30;;;3.90;99.90;;;;;;5060150;28;20029;-70
2022/12/27 04:34:43;;;;;;;18.63;5.57;;;3.80;99.90;;;;;;5060526;28;20174;-71
2022/12/27 04:37:11;;;;;;;16.02;6.07;;;3.80;99.90;;;;;;5059915;28;20029;-70
2022/12/27 04:39:37;;;;;;;15.02;6.03;;;3.80;99.90;;;;;;5060198;28;20052;-71
2022/12/27 04:55:58;;;;;;;21.33;5.78;;;3.90;99.90;;;;;;5062536;28;20031;-71
2022/12/27 04:58:24;;;;;;;16.30;5.82;;;3.80;99.90;;;;;;5063984;28;20053;-72
2022/12/27 05:03:36;;;;;;;17.35;6.18;;;3.80;99.90;;;;;;5063755;28;20060;-69
2022/12/27 05:06:01;;;;;;;14.30;5.68;;;3.80;99.90;;;;;;5064093;28;20025;-70
2022/12/27 05:13:59;;;;;;;24.67;6.38;;;3.80;99.90;;;;;;5064011;28;20074;-71
2022/12/27 05:16:36;;;;;;;20.45;6.45;;;3.80;99.90;;;;;;5045927;28;20108;-70
2022/12/27 05:19:03;;;;;;;16.85;6.13;;;3.80;99.90;;;;;;5063581;28;20036;-68
2022/12/27 05:21:28;;;;;;;19.65;6.13;;;3.80;99.90;;;;;;5063358;28;20063;-69
2022/12/27 05:26:39;;;;;;;16.58;5.80;;;3.80;99.90;;;;;;5063769;28;20028;-71
2022/12/27 05:29:06;;;;;;;24.40;5.68;;;3.80;99.90;;;;;;5063585;28;20033;-73
2022/12/27 05:31:32;;;;;;;13.52;5.55;;;3.80;99.90;;;;;;5063036;28;20024;-71
2022/12/27 05:33:58;;;;;;;22.42;5.60;;;3.80;99.90;;;;;;5063590;28;20021;-73
2022/12/27 05:36:25;;;;;;;17.80;5.70;;;3.80;99.90;;;;;;5063594;28;21313;-71
2022/12/27 05:38:51;;;;;;;21.98;6.80;;;3.80;99.90;;;;;;5063188;28;20024;-73
2022/12/27 05:41:17;;;;;;;21.65;5.82;;;3.80;99.90;;;;;;5063658;28;20025;-67
2022/12/27 05:43:42;;;;;;;17.15;4.90;;;3.90;99.90;;;;;;5063468;28;20058;-70
2022/12/27 05:46:11;;;;;;;21.80;6.15;;;3.90;99.90;;;;;;5063453;28;20043;-71
2022/12/27 05:48:37;;;;;;;18.77;5.53;;;3.90;99.90;;;;;;5063115;28;20040;-72
2022/12/27 05:51:08;;;;;;;15.38;5.30;;;4.00;99.90;;;;;;5044874;28;20033;-72
2022/12/27 05:53:34;;;;;;;10.02;4.13;;;4.00;99.90;;;;;;5062782;28;20027;-71
2022/12/27 05:56:00;;;;;;;15.10;5.43;;;4.00;99.90;;;;;;5063093;28;20103;-70
2022/12/27 05:58:26;;;;;;;13.98;4.60;;;4.00;99.90;;;;;;5062412;28;20786;-72
2022/12/27 06:00:52;;;;;;;17.77;5.70;;;4.10;99.90;;;;;;5063237;28;20067;-72
2022/12/27 06:03:18;;;;;;;22.95;5.32;;;4.10;99.90;;;;;;5062991;28;20032;-69
2022/12/27 06:05:44;;;;;;;16.38;5.07;;;4.20;99.90;;;;;;5062492;28;20144;-70
2022/12/27 06:08:10;;;;;;;21.48;5.82;;;4.10;99.90;;;;;;5059995;28;20078;-70
2022/12/27 06:10:36;;;;;;;25.40;8.45;;;4.20;99.90;;;;;;5061766;28;20039;-71
2022/12/27 06:13:03;;;;;;;18.25;6.13;;;4.10;99.90;;;;;;5059843;28;20033;-69
2022/12/27 06:15:29;;;;;;;19.02;6.07;;;4.10;99.90;;;;;;5061417;28;20080;-69
2022/12/27 06:17:58;;;;;;;18.48;5.95;;;4.10;99.90;;;;;;5060997;28;20045;-68
2022/12/27 06:20:31;;;;;;;15.48;5.22;;;4.10;99.90;;;;;;5058738;28;20064;-70
2022/12/27 06:22:59;;;;;;;17.08;5.95;;;4.10;99.90;;;;;;5039649;28;20037;-69
2022/12/27 06:25:24;;;;;;;17.13;6.03;;;4.10;99.90;;;;;;5039305;28;20021;-67
2022/12/27 06:27:50;;;;;;;17.90;6.45;;;4.00;99.90;;;;;;5037965;28;21079;-67
2022/12/27 06:30:18;;;;;;;18.63;5.80;;;4.00;99.90;;;;;;5038349;28;20123;-66
2022/12/27 06:32:45;;;;;;;18.45;6.43;;;4.00;99.90;;;;;;5039191;28;20077;-69
2022/12/27 06:35:11;;;;;;;19.20;6.25;;;4.00;99.90;;;;;;5040071;28;20021;-68
2022/12/27 06:37:37;;;;;;;16.33;6.85;;;4.00;99.90;;;;;;5037770;28;20501;-67
2022/12/27 06:40:02;;;;;;;15.82;6.03;;;4.00;99.90;;;;;;5038871;28;20055;-67
2022/12/27 06:42:29;;;;;;;17.50;5.80;;;4.00;99.90;;;;;;5038328;28;20033;-69
2022/12/27 06:44:55;;;;;;;13.70;6.05;;;4.10;99.90;;;;;;5031876;28;20029;-68
2022/12/27 06:47:21;;;;;;;22.08;6.75;;;4.00;99.90;;;;;;5013102;28;20037;-68
2022/12/27 06:49:46;;;;;;;16.27;5.65;;;4.00;99.90;;;;;;5037214;28;20052;-71
2022/12/27 06:52:12;;;;;;;16.58;6.13;;;4.00;99.90;;;;;;5022906;28;20033;-69
2022/12/27 06:54:40;;;;;;;19.13;5.88;;;3.90;99.90;;;;;;5039991;28;20056;-68
2022/12/27 06:57:05;;;;;;;18.30;5.05;;;3.90;99.90;;;;;;5039634;28;20018;-68
2022/12/27 06:59:31;;;;;;;15.93;4.80;;;3.80;99.90;;;;;;5039894;28;20385;-71
2022/12/27 07:01:56;;;;;;;9.85;4.10;;;4.00;99.90;;;;;;5034718;28;20025;-70
2022/12/27 07:04:22;;;;;;;18.00;4.63;;;3.80;99.90;;;;;;5018423;28;20029;-71
2022/12/27 07:06:47;;;;;;;14.85;4.97;;;3.80;99.90;;;;;;5040328;28;20061;-68
2022/12/27 07:09:13;;;;;;;15.40;4.90;;;3.80;99.90;;;;;;5040076;28;20613;-71
2022/12/27 07:11:39;;;;;;;7.47;4.18;;;3.80;99.90;;;;;;5038875;28;20471;-68
2022/12/27 07:14:08;;;;;;;12.57;4.50;;;3.70;99.90;;;;;;5022063;28;20033;-69
2022/12/27 07:16:33;;;;;;;15.98;3.20;;;3.70;99.90;;;;;;5038482;28;20021;-69
2022/12/27 07:18:59;;;;;;;18.52;4.70;;;3.70;99.90;;;;;;5037655;28;20033;-70
2022/12/27 07:21:27;;;;;;;10.13;3.67;;;3.70;99.90;;;;;;5039572;28;20103;-70
2022/12/27 07:23:53;;;;;;;10.40;3.55;;;3.70;99.90;;;;;;5040912;28;20048;-71
2022/12/27 07:26:21;;;;;;;10.32;4.53;;;3.70;99.90;;;;;;5041169;28;20029;-70
2022/12/27 07:28:48;;;;;;;18.63;3.95;;;3.70;99.90;;;;;;5040597;28;20132;-71
2022/12/27 07:31:21;;;;;;;17.42;2.85;;;3.70;99.90;;;;;;5040640;28;20032;-69
2022/12/27 07:33:47;;;;;;;18.75;3.97;;;3.80;99.90;;;;;;5040479;28;20045;-69
2022/12/27 07:36:15;;;;;;;14.90;3.67;;;3.80;99.90;;;;;;5040576;28;20091;-69
2022/12/27 07:38:41;;;;;;;10.15;3.75;;;3.80;99.90;;;;;;5040706;28;20040;-71
2022/12/27 07:41:08;;;;;;;13.23;4.30;;;3.80;99.90;;;;;;5040728;28;20033;-70
2022/12/27 07:43:34;;;;;;;20.40;4.25;;;3.80;99.90;;;;;;5037094;28;20021;-68
2022/12/27 07:46:09;;;;;;;14.75;4.05;;;3.70;99.90;;;;;;5037775;28;20026;-69
2022/12/27 07:48:36;;;;;;;19.27;4.47;;;3.70;99.90;;;;;;5039559;28;20037;-69
2022/12/27 07:51:02;;;;;;;18.67;4.03;;;3.80;99.90;;;;;;5039617;28;20036;-69
2022/12/27 07:53:28;;;;;;;16.55;4.50;;;3.70;99.90;;;;;;5021913;28;20030;-70
2022/12/27 07:55:54;;;;;;;13.32;4.22;;;3.70;99.90;;;;;;5038406;28;20038;-68
2022/12/27 07:58:20;;;;;;;16.40;4.88;;;3.70;99.90;;;;;;5038896;28;20037;-71
2022/12/27 08:00:48;;;;;;;19.95;4.65;;;3.70;99.90;;;;;;5039259;28;21109;-68
2022/12/27 08:03:13;;;;;;;12.75;4.30;;;3.70;99.90;;;;;;5017901;28;20033;-67
2022/12/27 08:05:48;;;;;;;16.00;4.65;;;3.70;99.90;;;;;;5040154;28;20085;-68
2022/12/27 08:08:15;;;;;;;11.75;4.13;;;3.70;99.90;;;;;;5037363;28;20025;-69
2022/12/27 08:10:41;;;;;;;15.68;4.97;;;3.80;99.90;;;;;;5039586;28;20025;-69
2022/12/27 08:13:07;;;;;;;16.13;5.78;;;3.80;99.90;;;;;;5040212;28;20052;-68
2022/12/27 08:15:32;;;;;;;13.07;5.43;;;3.90;99.90;;;;;;5039327;28;20033;-69
2022/12/27 08:17:58;;;;;;;14.50;4.70;;;4.00;99.90;;;;;;5038626;28;20053;-69
2022/12/27 08:20:23;;;;;;;15.40;4.93;;;4.10;99.90;;;;;;5040037;28;20054;-71
2022/12/27 08:22:49;;;;;;;13.27;4.07;;;4.20;99.90;;;;;;5060330;28;20037;-67
2022/12/27 08:25:14;;;;;;;23.35;5.78;;;4.40;99.90;;;;;;5060149;28;21103;-67
2022/12/27 08:27:40;;;;;;;13.27;3.67;;;4.50;99.90;;;;;;5059864;28;20021;-67
2022/12/27 08:30:06;;;;;;;16.63;4.55;;;4.60;99.90;;;;;;5059655;28;20037;-70
2022/12/27 08:32:35;;;;;;;16.60;4.47;;;4.80;99.90;;;;;;5059412;28;20052;-69
2022/12/27 08:35:01;;;;;;;11.95;3.72;;;4.90;99.90;;;;;;5059598;28;20096;-70
2022/12/27 08:37:26;;;;;;;16.63;4.43;;;5.00;99.90;;;;;;5059969;28;20049;-70
2022/12/27 08:39:52;;;;;;;19.08;4.40;;;5.20;99.90;;;;;;5059796;28;20053;-68
2022/12/27 08:42:18;;;;;;;16.25;4.35;;;5.30;99.90;;;;;;5059317;28;20040;-69
2022/12/27 08:44:43;;;;;;;13.82;4.10;;;5.40;99.90;;;;;;5059980;28;20036;-67
2022/12/27 08:47:09;;;;;;;7.57;3.47;;;5.50;99.90;;;;;;5059987;28;20027;-67
2022/12/27 08:49:34;;;;;;;10.93;3.72;;;5.60;99.90;;;;;;5059847;28;20045;-68
2022/12/27 08:52:00;;;;;;;12.95;3.65;;;5.70;99.90;;;;;;5041183;28;20037;-68
2022/12/27 08:54:25;;;;;;;7.40;3.40;;;5.80;99.90;;;;;;5059632;28;20394;-69
2022/12/27 08:56:51;;;;;;;15.77;4.20;;;5.80;99.90;;;;;;5060117;28;20066;-67
2022/12/27 08:59:17;;;;;;;12.25;3.92;;;5.90;99.90;;;;;;5053154;28;20021;-67
2022/12/27 09:01:42;;;;;;;31.98;9.05;;;5.70;99.90;;;;;;5055422;28;20029;-67
2022/12/27 09:04:08;;;;;;;18.30;6.07;;;5.60;99.90;;;;;;5040631;28;20053;-67
2022/12/27 09:06:33;;;;;;;12.38;4.15;;;5.40;99.90;;;;;;5056318;28;20037;-66
2022/12/27 09:09:00;;;;;;;14.13;4.68;;;5.30;99.90;;;;;;5058264;28;20502;-67
2022/12/27 09:11:31;;;;;;;12.00;3.90;;;5.20;99.90;;;;;;5057888;28;20021;-68
2022/12/27 09:14:02;;;;;;;20.08;4.57;;;5.20;99.90;;;;;;5053840;28;20050;-68
2022/12/27 09:16:29;;;;;;;13.65;4.05;;;5.20;99.90;;;;;;5054836;28;20527;-68
2022/12/27 09:18:57;;;;;;;16.08;4.38;;;5.20;99.90;;;;;;5057841;28;20029;-67
2022/12/27 09:21:24;;;;;;;9.63;4.25;;;5.40;99.90;;;;;;5058578;28;20049;-68
2022/12/27 09:23:51;;;;;;;11.52;3.67;;;5.70;99.90;;;;;;5055495;28;20033;-68
2022/12/27 09:26:27;;;;;;;21.45;4.30;;;6.00;99.90;;;;;;5054671;28;20033;-71
2022/12/27 09:28:55;;;;;;;14.88;4.18;;;6.30;99.90;;;;;;5058962;28;20029;-69
2022/12/27 09:31:22;;;;;;;12.32;3.88;;;6.70;99.90;;;;;;5056471;28;20096;-69
2022/12/27 09:33:48;;;;;;;13.10;4.18;;;7.00;99.90;;;;;;5056327;28;20060;-68
2022/12/27 09:36:21;;;;;;;16.35;4.30;;;7.20;99.90;;;;;;5054968;28;20033;-70
2022/12/27 09:38:47;;;;;;;18.55;4.22;;;7.20;99.90;;;;;;5057505;28;20090;-67
2022/12/27 09:41:31;;;;;;;15.43;3.78;;;6.90;99.90;;;;;;5058560;28;20037;-68
2022/12/27 09:44:35;;;;;;;12.88;3.35;;;6.50;99.90;;;;;;5063363;28;20025;-69
2022/12/27 09:47:16;;;;;;;13.27;3.42;;;6.20;99.90;;;;;;5044359;28;20044;-68
2022/12/27 09:49:55;;;;;;;10.43;3.15;;;6.10;99.90;;;;;;5062890;28;20040;-68
2022/12/27 09:52:31;;;;;;;13.82;3.70;;;6.50;99.90;;;;;;5045106;28;20067;-67
2022/12/27 09:55:21;;;;;;;16.42;3.75;;;7.00;99.90;;;;;;5063299;28;20077;-66
2022/12/27 09:57:49;;;;;;;11.88;3.13;;;7.50;99.90;;;;;;5063489;28;20033;-66
2022/12/27 10:00:19;;;;;;;8.55;3.00;;;8.00;99.90;;;;;;5063023;28;20020;-68
2022/12/27 10:02:46;;;;;;;12.50;3.90;;;8.40;99.90;;;;;;5062466;28;20029;-68
2022/12/27 10:05:24;;;;;;;12.68;3.85;;;8.70;99.90;;;;;;5063065;28;20116;-66
2022/12/27 10:08:24;;;;;;;11.23;3.85;;;8.90;99.90;;;;;;5062518;28;20029;-68
2022/12/27 10:11:34;;;;;;;14.75;3.90;;;8.90;99.90;;;;;;5062805;28;20033;-67
2022/12/27 10:14:21;;;;;;;15.75;3.70;;;8.70;99.90;;;;;;5061589;28;20037;-66
2022/12/27 10:17:07;;;;;;;12.27;3.58;;;8.50;99.90;;;;;;5056691;28;20029;-66
2022/12/27 10:20:03;;;;;;;15.35;3.83;;;8.50;99.90;;;;;;5061815;28;20029;-67
2022/12/27 10:22:37;;;;;;;43.35;13.90;;;8.60;99.90;;;;;;5060188;28;20115;-66
2022/12/27 10:25:08;;;;;;;27.92;9.93;;;8.70;99.90;;;;;;5059721;28;20040;-68
2022/12/27 10:27:34;;;;;;;14.85;4.50;;;8.80;99.90;;;;;;5061443;28;20036;-67
2022/12/27 10:30:02;;;;;;;13.05;4.22;;;8.80;99.90;;;;;;5061962;28;20047;-70
2022/12/27 10:32:27;;;;;;;14.10;4.05;;;9.00;99.90;;;;;;5061115;28;20080;-69
2022/12/27 10:35:01;;;;;;;11.13;3.88;;;9.20;99.90;;;;;;5061208;28;20466;-67
2022/12/27 10:37:27;;;;;;;14.52;4.13;;;9.30;99.90;;;;;;5060322;28;20060;-66
2022/12/27 10:39:54;;;;;;;18.23;4.32;;;9.40;99.90;;;;;;5062077;28;20033;-67
2022/12/27 10:42:34;;;;;;;11.98;3.80;;;9.70;99.90;;;;;;5061466;28;20017;-69
2022/12/27 10:45:26;;;;;;;19.73;4.25;;;9.70;99.90;;;;;;5061527;28;20107;-67
2022/12/27 10:47:58;;;;;;;12.00;4.25;;;9.70;99.90;;;;;;5062534;28;20021;-67
2022/12/27 10:50:28;;;;;;;10.93;3.90;;;9.80;99.90;;;;;;5058219;28;20103;-68
2022/12/27 10:52:54;;;;;;;15.90;4.78;;;10.00;99.90;;;;;;5060656;28;20188;-69
2022/12/27 10:55:37;;;;;;;15.60;4.05;;;9.90;99.90;;;;;;5061759;28;20021;-67
2022/12/27 10:58:39;;;;;;;12.02;3.55;;;9.90;99.90;;;;;;5057214;28;20033;-70
2022/12/27 11:01:05;;;;;;;21.30;4.05;;;10.00;99.90;;;;;;5047781;28;20045;-67
2022/12/27 11:03:31;;;;;;;19.00;4.60;;;10.10;99.90;;;;;;5060709;28;20029;-69
2022/12/27 11:06:03;;;;;;;13.07;3.33;;;10.30;99.90;;;;;;5060819;28;20520;-68
2022/12/27 11:08:29;;;;;;;14.75;2.95;;;10.60;99.90;;;;;;5058769;28;20044;-69
2022/12/27 11:11:22;;;;;;;17.98;4.28;;;10.80;99.90;;;;;;5060086;28;20048;-68
2022/12/27 11:13:49;;;;;;;17.75;4.00;;;10.90;99.90;;;;;;5061500;28;20037;-68
2022/12/27 11:16:29;;;;;;;13.27;3.38;;;11.00;99.90;;;;;;5061942;28;20074;-68
2022/12/27 11:18:57;;;;;;;14.63;4.07;;;11.20;99.90;;;;;;5062094;28;20068;-69
2022/12/27 11:21:25;;;;;;;15.73;3.70;;;11.40;99.90;;;;;;5059947;28;20072;-67
2022/12/27 11:23:59;;;;;;;22.08;3.50;;;11.70;99.90;;;;;;5061859;28;20028;-68
2022/12/27 11:26:53;;;;;;;10.00;3.08;;;12.00;99.90;;;;;;5061999;28;20046;-70
2022/12/27 11:29:21;;;;;;;16.37;3.93;;;12.10;99.90;;;;;;5059959;28;20041;-69
2022/12/27 11:31:47;;;;;;;18.33;3.70;;;12.10;99.90;;;;;;5061618;28;20102;-69
2022/12/27 11:34:17;;;;;;;14.32;3.35;;;12.10;99.90;;;;;;5061618;28;20035;-67
2022/12/27 11:36:47;;;;;;;18.05;3.83;;;11.90;99.90;;;;;;5061609;28;20029;-67
2022/12/27 11:39:43;;;;;;;6.10;3.03;;;11.60;99.90;;;;;;5061040;28;20031;-68
2022/12/27 11:42:32;;;;;;;11.88;3.55;;;11.60;99.90;;;;;;5061293;28;20028;-70
2022/12/27 11:45:04;;;;;;;12.63;3.38;;;11.60;99.90;;;;;;5061308;28;20059;-67
2022/12/27 11:48:01;;;;;;;7.97;3.30;;;11.40;99.90;;;;;;5061688;28;20028;-68
2022/12/27 11:50:26;;;;;;;12.35;3.75;;;11.00;99.90;;;;;;5060008;28;20033;-66
2022/12/27 11:53:25;;;;;;;14.60;3.83;;;10.40;99.90;;;;;;5061251;28;20047;-69
2022/12/27 11:56:09;;;;;;;14.35;3.70;;;9.90;99.90;;;;;;5043576;28;20508;-68
2022/12/27 11:58:55;;;;;;;10.05;3.67;;;9.70;99.90;;;;;;5060709;28;20024;-67
2022/12/27 12:01:45;;;;;;;10.18;3.72;;;10.00;99.90;;;;;;5043026;28;20385;-70
2022/12/27 12:04:53;;;;;;;8.32;3.30;;;10.30;99.90;;;;;;5060895;28;20029;-68
2022/12/27 12:07:52;;;;;;;15.57;3.97;;;10.10;99.90;;;;;;5061026;28;20024;-68
2022/12/27 12:10:40;;;;;;;21.55;4.85;;;9.70;99.90;;;;;;5059784;28;20094;-68
2022/12/27 12:13:12;;;;;;;13.43;3.88;;;9.30;99.90;;;;;;5060938;28;20044;-68
2022/12/27 12:15:52;;;;;;;12.38;3.78;;;8.90;99.90;;;;;;5059629;28;20025;-67
2022/12/27 12:18:40;;;;;;;19.38;5.32;;;8.50;99.90;;;;;;5060723;28;20044;-68
2022/12/27 12:21:30;;;;;;;17.00;5.97;;;8.20;99.90;;;;;;5060481;28;20597;-69
2022/12/27 12:24:01;;;;;;;20.10;4.20;;;7.90;99.90;;;;;;5060836;28;20029;-68
2022/12/27 12:26:50;;;;;;;11.00;4.18;;;7.80;99.90;;;;;;5060571;28;20048;-67
2022/12/27 12:29:38;;;;;;;24.50;7.95;;;7.60;99.90;;;;;;5060817;28;20055;-67
2022/12/27 12:32:18;;;;;;;13.25;4.85;;;7.50;99.90;;;;;;5060833;28;20082;-66
2022/12/27 12:35:06;;;;;;;18.48;4.53;;;7.40;99.90;;;;;;5060321;28;20032;-68
2022/12/27 12:37:50;;;;;;;15.10;4.40;;;7.40;99.90;;;;;;5042464;28;20024;-69
2022/12/27 12:40:34;;;;;;;24.73;3.90;;;7.30;99.90;;;;;;5060300;28;20036;-67
2022/12/27 12:43:19;;;;;;;17.23;3.85;;;7.30;99.90;;;;;;5060303;28;20029;-68
2022/12/27 12:45:54;;;;;;;13.70;3.67;;;7.30;99.90;;;;;;5042912;28;20111;-68
2022/12/27 12:48:26;;;;;;;22.35;3.90;;;7.20;99.90;;;;;;5060792;28;20029;-66
2022/12/27 12:51:29;;;;;;;18.65;4.25;;;7.20;99.90;;;;;;5061043;28;20081;-68
2022/12/27 12:53:58;;;;;;;12.50;4.05;;;7.30;99.90;;;;;;5042364;28;20097;-69
2022/12/27 12:56:48;;;;;;;15.20;4.30;;;7.20;99.90;;;;;;5060830;28;20033;-68
2022/12/27 12:59:40;;;;;;;14.93;4.13;;;7.10;99.90;;;;;;5060371;28;20246;-69
2022/12/27 13:02:29;;;;;;;17.52;5.05;;;7.10;99.90;;;;;;5036486;28;20045;-67
2022/12/27 13:04:58;;;;;;;18.33;4.68;;;7.10;99.90;;;;;;5059572;28;20021;-67
2022/12/27 13:07:32;;;;;;;19.23;5.18;;;7.00;99.90;;;;;;5058343;28;20029;-68
2022/12/27 13:10:25;;;;;;;13.95;4.53;;;6.90;99.90;;;;;;5058500;28;20037;-68
2022/12/27 13:12:54;;;;;;;17.88;5.05;;;6.90;99.90;;;;;;5059898;28;20036;-69
2022/12/27 13:15:51;;;;;;;16.05;4.97;;;6.90;99.90;;;;;;5058790;28;20024;-69
2022/12/27 13:18:25;;;;;;;16.70;4.55;;;6.90;99.90;;;;;;5055177;28;20072;-67
2022/12/27 13:21:15;;;;;;;24.27;5.60;;;6.90;99.90;;;;;;5061735;28;20121;-67
2022/12/27 13:24:24;;;;;;;15.05;6.05;;;6.90;99.90;;;;;;5062798;28;20025;-68
2022/12/27 13:27:05;;;;;;;15.43;4.70;;;6.90;99.90;;;;;;5063111;28;20092;-70
2022/12/27 13:29:52;;;;;;;12.43;4.90;;;6.90;99.90;;;;;;5062855;28;20029;-66
2022/12/27 13:32:37;;;;;;;16.58;5.07;;;6.90;99.90;;;;;;5063995;28;20025;-67
2022/12/27 13:35:38;;;;;;;21.70;6.22;;;6.90;99.90;;;;;;5060810;28;20033;-68
2022/12/27 13:38:18;;;;;;;29.13;9.88;;;6.90;99.90;;;;;;5063580;28;20020;-68
2022/12/27 13:40:52;;;;;;;41.33;14.15;;;6.90;99.90;;;;;;5061467;28;20085;-68
2022/12/27 13:43:36;;;;;;;;;;;6.80;99.90;;;;;;5043574;28;20029;-67
2022/12/27 13:46:32;;;;;;;25.05;8.65;;;6.80;99.90;;;;;;5062568;28;19944;-68
2022/12/27 13:49:30;;;;;;;110.45;37.95;;;6.80;99.90;;;;;;5043168;28;20489;-69
2022/12/27 13:52:32;;;;;;;32.67;12.10;;;6.80;99.90;;;;;;5063183;28;20039;-67
2022/12/27 13:55:19;;;;;;;24.17;8.43;;;6.80;99.90;;;;;;5061880;28;20025;-68
2022/12/27 13:58:10;;;;;;;39.22;11.07;;;6.70;99.90;;;;;;5062573;28;20056;-66
2022/12/27 14:00:57;;;;;;;21.75;7.60;;;6.70;99.90;;;;;;5062324;28;20092;-66
2022/12/27 14:04:00;;;;;;;22.77;7.30;;;6.70;99.90;;;;;;5063082;28;20040;-68
2022/12/27 14:06:48;;;;;;;25.02;7.97;;;6.70;99.90;;;;;;5045269;28;20037;-67
2022/12/27 14:09:21;;;;;;;22.98;6.40;;;6.70;99.90;;;;;;5044889;28;20374;-68
2022/12/27 14:12:12;;;;;;;27.70;7.40;;;6.60;99.90;;;;;;5061971;28;20397;-68
2022/12/27 14:14:40;;;;;;;20.23;6.88;;;6.60;99.90;;;;;;5038913;28;20040;-67
2022/12/27 14:17:14;;;;;;;23.42;7.88;;;6.60;99.90;;;;;;5062625;28;20021;-67
2022/12/27 14:20:07;;;;;;;;;;;6.60;99.90;;;;;;5062498;28;20068;-68
2022/12/27 14:22:43;;;;;;;15.93;6.20;;;6.60;99.90;;;;;;5057925;28;19948;-69
2022/12/27 14:25:27;;;;;;;14.20;5.20;;;6.60;99.90;;;;;;5062425;28;20444;-66
2022/12/27 14:28:38;;;;;;;17.52;5.43;;;6.50;99.90;;;;;;5061923;28;20401;-69
2022/12/27 14:31:22;;;;;;;20.30;6.95;;;6.50;99.90;;;;;;5062907;28;20128;-67
2022/12/27 14:34:25;;;;;;;23.10;6.90;;;6.50;99.90;;;;;;5042052;28;20367;-66
2022/12/27 14:37:36;;;;;;;18.10;5.90;;;6.40;99.90;;;;;;5061961;28;20032;-68
2022/12/27 14:40:12;;;;;;;15.93;5.00;;;6.40;99.90;;;;;;5060759;28;20044;-68
2022/12/27 14:43:02;;;;;;;17.23;5.65;;;6.30;99.90;;;;;;5061004;28;20085;-67
2022/12/27 14:45:46;;;;;;;18.50;5.70;;;6.40;99.90;;;;;;5030753;28;20132;-66
2022/12/27 14:48:31;;;;;;;20.27;6.45;;;6.30;99.90;;;;;;5061523;28;20037;-66
2022/12/27 14:51:18;;;;;;;17.88;6.18;;;6.30;99.90;;;;;;5062242;28;20143;-68
2022/12/27 14:54:28;;;;;;;15.30;5.55;;;6.30;99.90;;;;;;5061880;28;20076;-68
2022/12/27 14:57:15;;;;;;;17.15;5.78;;;6.30;99.90;;;;;;5060657;28;20457;-67
2022/12/27 15:00:00;;;;;;;28.85;8.95;;;6.20;99.90;;;;;;5060424;28;20115;-67